ADDS METAR Data INFO
IDs: Format: Raw Decoded Include TAF

Data at: 0751 UTC 21 Nov 2017

KPPA 210735Z AUTO 24006KT 10SM CLR 04/M04 A2977 RMK AO2 T00401039
KPPA 210715Z AUTO 20004KT 10SM CLR 04/M04 A2979 RMK AO2 T00351036
KPPA 210655Z AUTO 16007KT 10SM CLR 04/M03 A2979 RMK AO2 T00431035
KPPA 210635Z AUTO 19008KT 10SM CLR 05/M03 A2980 RMK AO2 T00501035
KPPA 210615Z AUTO 17009KT 10SM CLR 05/M03 A2980 RMK AO2 T00501035
KPPA 210555Z AUTO 18009KT 10SM CLR 06/M03 A2980 RMK AO2 T00561035 10105 20044 402000030
KPPA 210535Z AUTO 18009KT 10SM CLR 06/M03 A2980 RMK AO2 T00571035
KPPA 210515Z AUTO 17009KT 10SM CLR 05/M04 A2980 RMK AO2 T00531040
KPPA 210455Z AUTO 17008KT 10SM CLR 05/M04 A2980 RMK AO2 T00491045
KPPA 210435Z AUTO 16008KT 10SM CLR 06/M04 A2980 RMK AO2 T00611043
KPPA 210415Z AUTO 17009KT 10SM CLR 08/M05 A2981 RMK AO2 T00791046
KPPA 210355Z AUTO 16009KT 10SM CLR 08/M05 A2981 RMK AO2 T00761047
KPPA 210335Z AUTO 17010KT 10SM CLR 08/M05 A2981 RMK AO2 T00811051
KPPA 210315Z AUTO 17009KT 10SM CLR 08/M05 A2981 RMK AO2 T00811053
KPPA 210255Z AUTO 17009KT 10SM CLR 09/M06 A2983 RMK AO2 T00851058
KPPA 210235Z AUTO 17009KT 10SM CLR 07/M06 A2983 RMK AO2 T00681061
KPPA 210215Z AUTO 17009KT 10SM CLR 08/M06 A2983 RMK AO2 T00771061
KPPA 210155Z AUTO 17009KT 10SM CLR 09/M06 A2983 RMK AO2 T00851061
KPPA 210135Z AUTO 17009KT 10SM CLR 08/M06 A2984 RMK AO2 T00781059
KPPA 210115Z AUTO 17009KT 10SM CLR 09/M06 A2984 RMK AO2 T00921059
KPPA 210055Z AUTO 17009KT 10SM CLR 09/M06 A2984 RMK AO2 T00911060
KPPA 210035Z AUTO 17009KT 10SM CLR 09/M06 A2983 RMK AO2 T00911059
KPPA 210015Z AUTO 16010KT 10SM CLR 10/M06 A2983 RMK AO2 T00971060
KPPA 202355Z AUTO 16007KT 10SM CLR 10/M06 A2984 RMK AO2 T01001059 10200 20100
KPPA 202335Z AUTO 18009KT 10SM CLR 11/M06 A2983 RMK AO2 T01081059
KPPA 202315Z AUTO 18008KT 10SM CLR 14/M06 A2984 RMK AO2 T01411057
KPPA 202255Z AUTO 19008KT 10SM CLR 16/M06 A2984 RMK AO2 T01611060
KPPA 202235Z AUTO 20012KT 10SM CLR 17/M06 A2983 RMK AO2 T01681061
KPPA 202215Z AUTO 19011KT 10SM CLR 18/M07 A2983 RMK AO2 T01841072
KPPA 202155Z AUTO 19009KT 10SM CLR 19/M09 A2983 RMK AO2 T01921086
KPPA 202135Z AUTO 22009KT 10SM CLR 20/M11 A2983 RMK AO2 T01951108
KPPA 202115Z AUTO 21009KT 10SM CLR 20/M10 A2984 RMK AO2 T01991099
KPPA 202055Z AUTO 22008KT 10SM CLR 20/M09 A2984 RMK AO2 T01981095
KPPA 202035Z AUTO 21009KT 10SM CLR 19/M09 A2985 RMK AO2 T01911094
KPPA 202015Z AUTO 22008KT 10SM CLR 19/M09 A2985 RMK AO2 T01901088
KPPA 201955Z AUTO 21008KT 10SM CLR 19/M09 A2986 RMK AO2 T01861087
KPPA 201935Z AUTO 22007KT 10SM CLR 18/M09 A2986 RMK AO2 T01801086
KPPA 201915Z AUTO 23006KT 10SM CLR 18/M09 A2987 RMK AO2 T01771088
KPPA 201855Z AUTO 22008KT 10SM CLR 17/M08 A2987 RMK AO2 T01711077
KPPA 201835Z AUTO 23006KT 10SM CLR 17/M08 A2989 RMK AO2 T01701078
KPPA 201815Z AUTO 22005KT 10SM CLR 16/M08 A2990 RMK AO2 T01631076
KPPA 201755Z AUTO 22006KT 10SM CLR 16/M07 A2991 RMK AO2 T01631075 10163 20030
KPPA 201735Z AUTO 23008KT 10SM CLR 15/M08 A2991 RMK AO2 T01471084
KPPA 201715Z AUTO 23007KT 10SM CLR 14/M08 A2991 RMK AO2 T01421077
KPPA 201655Z AUTO 25009KT 10SM CLR 13/M07 A2992 RMK AO2 T01301075
KPPA 201635Z AUTO 25010KT 10SM CLR 13/M08 A2993 RMK AO2 T01251077
KPPA 201615Z AUTO 26010KT 10SM CLR 12/M08 A2993 RMK AO2 T01171077
KPPA 201555Z AUTO 27012KT 10SM CLR 10/M08 A2994 RMK AO2 T01011076
KPPA 201535Z AUTO 25010KT 10SM CLR 09/M08 A2995 RMK AO2 T00911078
KPPA 201515Z AUTO 24016G20KT 10SM CLR 08/M07 A2993 RMK AO2 T00791075
KPPA 201455Z AUTO 23014KT 10SM CLR 06/M07 A2994 RMK AO2 T00641069
KPPA 201435Z AUTO 23016G21KT 10SM CLR 05/M07 A2994 RMK AO2 T00491066
KPPA 201415Z AUTO 22016KT 10SM CLR 04/M06 A2994 RMK AO2 T00401065
KPPA 201355Z AUTO 22012KT 10SM CLR 03/M07 A2996 RMK AO2 T00341066
KPPA 201335Z AUTO 22015G20KT 10SM CLR 03/M07 A2995 RMK AO2 T00321066
KPPA 201315Z AUTO 22014G20KT 10SM CLR 03/M07 A2995 RMK AO2 T00311067
KPPA 201255Z AUTO 22016KT 10SM CLR 04/M07 A2994 RMK AO2 T00361068
KPPA 201235Z AUTO 23016KT 10SM CLR 04/M07 A2994 RMK AO2 T00401069
KPPA 201215Z AUTO 23018KT 10SM CLR 04/M07 A2995 RMK AO2 T00401068
KPPA 201155Z AUTO 22013KT 10SM CLR 04/M07 A2996 RMK AO2 T00391070 10048 20031
KPPA 201135Z AUTO 22014KT 10SM CLR 04/M07 A2997 RMK AO2 T00421070
KPPA 201115Z AUTO 23012G16KT 10SM CLR 04/M07 A2997 RMK AO2 T00411072
KPPA 201055Z AUTO 22013KT 10SM CLR 04/M07 A2997 RMK AO2 T00401074
KPPA 201035Z AUTO 23014KT 10SM CLR 05/M07 A2998 RMK AO2 T00451075
KPPA 201015Z AUTO 22014KT 10SM CLR 05/M07 A2999 RMK AO2 T00471075
KPPA 200955Z AUTO 23014KT 10SM CLR 04/M07 A3000 RMK AO2 T00431075
KPPA 200935Z AUTO 23012KT 10SM CLR 04/M07 A3001 RMK AO2 T00361075
KPPA 200915Z AUTO 22011KT 10SM CLR 04/M08 A3001 RMK AO2 T00351078
KPPA 200855Z AUTO 22014KT 10SM CLR 04/M08 A3000 RMK AO2 T00381082
KPPA 200835Z AUTO 22012KT 10SM CLR 04/M09 A3001 RMK AO2 T00401087
KPPA 200815Z AUTO 22013G18KT 10SM CLR 05/M09 A3002 RMK AO2 T00451090
KPPA 200755Z AUTO 21014KT 10SM CLR 05/M09 A3002 RMK AO2 T00451095
KPPA 200735Z AUTO 21013KT 10SM CLR 05/M09 A3003 RMK AO2 T00481095
KPPA 200715Z AUTO 21013G16KT 10SM CLR 04/M09 A3005 RMK AO2 T00421092
KPPA 200655Z AUTO 21010KT 10SM CLR 04/M09 A3006 RMK AO2 T00421092
KPPA 200635Z AUTO 20009KT 10SM CLR 04/M09 A3007 RMK AO2 T00401088
KPPA 200615Z AUTO 20008KT 10SM CLR 04/M08 A3007 RMK AO2 T00381085
KPPA 200555Z AUTO 20010KT 10SM CLR 04/M08 A3008 RMK AO2 T00401085 10097 20025 401681022
KPPA 200535Z AUTO 21011KT 10SM CLR 04/M08 A3008 RMK AO2 T00381085
KPPA 200515Z AUTO 20009KT 10SM CLR 03/M09 A3009 RMK AO2 T00301086
KPPA 200455Z AUTO 19009KT 10SM CLR 03/M08 A3009 RMK AO2 T00261085
KPPA 200435Z AUTO 19009KT 10SM CLR 03/M09 A3010 RMK AO2 T00331086
KPPA 200415Z AUTO 19010KT 10SM CLR 04/M09 A3011 RMK AO2 T00411086
KPPA 200355Z AUTO 18010KT 10SM CLR 04/M08 A3011 RMK AO2 T00441085
KPPA 200335Z AUTO 19010KT 10SM CLR 04/M08 A3011 RMK AO2 T00381085
KPPA 200315Z AUTO 19010KT 10SM CLR 05/M09 A3011 RMK AO2 T00451087
KPPA 200255Z AUTO 19010KT 10SM CLR 05/M09 A3011 RMK AO2 T00491087
KPPA 200235Z AUTO 19009KT 10SM CLR 05/M09 A3011 RMK AO2 T00531090
KPPA 200215Z AUTO 19009KT 10SM CLR 06/M09 A3012 RMK AO2 T00561090
KPPA 200155Z AUTO 19009KT 10SM CLR 06/M09 A3012 RMK AO2 T00601090
KPPA 200135Z AUTO 19009KT 10SM CLR 07/M09 A3012 RMK AO2 T00691091
KPPA 200115Z AUTO 19009KT 10SM CLR 06/M09 A3012 RMK AO2 T00621090
KPPA 200055Z AUTO 19008KT 10SM CLR 06/M09 A3012 RMK AO2 T00561093
KPPA 200035Z AUTO 19008KT 10SM CLR 07/M09 A3012 RMK AO2 T00701093
KPPA 200015Z AUTO 19008KT 10SM CLR 09/M09 A3012 RMK AO2 T00881091
KPPA 192355Z AUTO 20009KT 10SM CLR 10/M09 A3012 RMK AO2 T00981090 10168 20098
KPPA 192335Z AUTO 20008KT 10SM CLR 11/M09 A3012 RMK AO2 T01131092
KPPA 192315Z AUTO 21010KT 10SM CLR 14/M10 A3012 RMK AO2 T01351097
KPPA 192255Z AUTO 21013KT 10SM CLR 14/M10 A3012 RMK AO2 T01401098
KPPA 192235Z AUTO 21014G17KT 10SM CLR 15/M10 A3012 RMK AO2 T01521098
KPPA 192215Z AUTO 22014KT 10SM CLR 16/M10 A3013 RMK AO2 T01551099
KPPA 192155Z AUTO 22014G19KT 10SM CLR 16/M10 A3013 RMK AO2 T01611098
KPPA 192130Z AUTO 22015G20KT 10SM CLR 16/M10 A3014 RMK AO2 T01631096
KPPA 192115Z AUTO 22018G25KT 10SM CLR 17/M09 A3014 RMK AO2 T01661095
KPPA 192055Z AUTO 23017G22KT 10SM CLR 17/M09 A3016 RMK AO2 T01661093
KPPA 192035Z AUTO 22015G22KT 10SM CLR 17/M09 A3016 RMK AO2 T01661091
KPPA 192015Z AUTO 22018G22KT 10SM CLR 17/M09 A3018 RMK AO2 T01651089
KPPA 191955Z AUTO 23017G24KT 10SM CLR 17/M09 A3018 RMK AO2 T01651090